createdAt,value
2022-09-24T00:02:06.150Z,16.20
2022-09-24T00:04:57.690Z,16.10
2022-09-24T00:07:47.688Z,15.90
2022-09-24T00:10:31.475Z,15.80
2022-09-24T00:13:23.655Z,15.90
2022-09-24T00:16:11.583Z,16.30
2022-09-24T00:19:00.706Z,16.20
2022-09-24T00:21:51.579Z,15.90
2022-09-24T00:24:55.879Z,15.90
2022-09-24T00:27:52.491Z,16.10
2022-09-24T00:30:41.484Z,16.00
2022-09-24T00:33:28.890Z,16.00
2022-09-24T00:36:18.478Z,15.90
2022-09-24T00:39:05.622Z,15.90
2022-09-24T00:41:58.524Z,15.80
2022-09-24T00:44:55.898Z,15.80
2022-09-24T00:47:55.515Z,15.70
2022-09-24T00:50:46.755Z,15.80
2022-09-24T00:53:42.806Z,15.70
2022-09-24T00:56:36.608Z,15.70
2022-09-24T00:59:29.521Z,15.50
2022-09-24T01:02:24.374Z,15.30
2022-09-24T01:05:14.602Z,15.30
2022-09-24T01:08:03.727Z,15.40
2022-09-24T01:11:01.540Z,15.40
2022-09-24T01:14:10.855Z,15.40
2022-09-24T01:16:57.909Z,15.30
2022-09-24T01:20:19.517Z,15.50
2022-09-24T01:23:29.777Z,15.40
2022-09-24T01:26:33.507Z,15.50
2022-09-24T01:29:48.493Z,15.40
2022-09-24T01:32:56.566Z,15.50
2022-09-24T01:35:48.506Z,15.60
2022-09-24T01:38:34.818Z,15.50
2022-09-24T01:41:28.578Z,15.50
2022-09-24T01:44:12.729Z,15.40
2022-09-24T01:47:06.522Z,15.40
2022-09-24T01:49:51.481Z,15.30
2022-09-24T01:52:51.523Z,15.30
2022-09-24T01:55:44.517Z,15.20
2022-09-24T01:58:30.751Z,15.60
2022-09-24T02:01:22.570Z,15.40
2022-09-24T02:04:19.786Z,15.60
2022-09-24T02:07:04.570Z,15.50
2022-09-24T02:09:53.086Z,15.70
2022-09-24T02:12:51.542Z,15.60
2022-09-24T02:15:46.548Z,15.60
2022-09-24T02:18:41.527Z,15.60
2022-09-24T02:21:34.803Z,15.60
2022-09-24T02:24:30.742Z,15.40
2022-09-24T02:27:28.510Z,15.40
2022-09-24T02:30:18.547Z,15.60
2022-09-24T02:33:24.759Z,15.60
2022-09-24T02:36:14.553Z,15.80
2022-09-24T02:38:59.805Z,15.70
2022-09-24T02:41:55.539Z,15.50
2022-09-24T02:44:40.687Z,15.40
2022-09-24T02:47:37.577Z,15.40
2022-09-24T02:50:21.095Z,15.20
2022-09-24T02:53:11.543Z,15.20
2022-09-24T02:56:01.785Z,15.10
2022-09-24T02:58:51.566Z,15.00
2022-09-24T03:01:40.890Z,15.00
2022-09-24T03:04:34.824Z,15.10
2022-09-24T03:07:23.737Z,15.10
2022-09-24T03:10:07.554Z,15.10
2022-09-24T03:13:02.762Z,15.10
2022-09-24T03:15:46.608Z,15.10
2022-09-24T03:18:36.911Z,15.20
2022-09-24T03:21:23.565Z,15.10
2022-09-24T03:24:16.778Z,15.00
2022-09-24T03:27:17.566Z,14.90
2022-09-24T03:30:27.307Z,14.90
2022-09-24T03:33:17.532Z,15.20
2022-09-24T03:36:18.561Z,15.10
2022-09-24T03:39:08.751Z,15.20
2022-09-24T03:41:52.707Z,15.20
2022-09-24T03:44:42.795Z,15.30
2022-09-24T03:47:38.682Z,15.30
2022-09-24T03:50:29.940Z,15.20
2022-09-24T03:53:26.600Z,15.20
2022-09-24T03:56:16.789Z,15.10
2022-09-24T03:59:10.555Z,15.10
2022-09-24T04:02:03.134Z,15.10
2022-09-24T04:04:55.653Z,15.30
2022-09-24T04:07:45.762Z,15.40
2022-09-24T04:10:31.629Z,15.20
2022-09-24T04:13:20.716Z,15.40
2022-09-24T04:16:15.951Z,15.40
2022-09-24T04:19:08.036Z,15.40
2022-09-24T04:22:02.623Z,15.60
2022-09-24T04:24:46.115Z,15.30
2022-09-24T04:27:42.800Z,15.30
2022-09-24T04:30:34.733Z,15.30
2022-09-24T04:33:23.667Z,15.30
2022-09-24T04:36:14.802Z,15.30
2022-09-24T04:39:05.665Z,15.30
2022-09-24T04:41:56.823Z,15.20
2022-09-24T04:44:47.578Z,15.20
2022-09-24T04:47:38.168Z,15.30
2022-09-24T04:50:23.656Z,15.20
2022-09-24T04:53:14.794Z,15.10
2022-09-24T04:56:00.609Z,15.10
2022-09-24T04:58:59.623Z,15.20
2022-09-24T05:01:49.883Z,15.20
2022-09-24T05:04:44.026Z,15.50
2022-09-24T05:07:33.930Z,15.30
2022-09-24T05:10:16.662Z,15.40
2022-09-24T05:13:10.832Z,15.60
2022-09-24T05:15:53.609Z,15.30
2022-09-24T05:18:44.808Z,15.40
2022-09-24T05:21:34.603Z,15.40
2022-09-24T05:24:24.620Z,15.60
2022-09-24T05:27:22.604Z,15.60
2022-09-24T05:30:14.664Z,15.50
2022-09-24T05:32:58.823Z,15.50
2022-09-24T05:35:50.674Z,15.50
2022-09-24T05:38:34.107Z,15.20
2022-09-24T05:41:24.606Z,15.10
2022-09-24T05:44:08.765Z,15.10
2022-09-24T05:46:59.697Z,15.10
2022-09-24T05:49:44.816Z,15.00
2022-09-24T05:52:42.628Z,15.10
2022-09-24T05:55:32.692Z,15.00
2022-09-24T05:58:26.640Z,15.30
2022-09-24T06:01:18.798Z,15.20
2022-09-24T06:04:10.688Z,15.00
2022-09-24T06:07:03.389Z,14.90
2022-09-24T06:09:53.629Z,14.80
2022-09-24T06:12:44.037Z,15.20
2022-09-24T06:15:27.685Z,15.30
2022-09-24T06:18:17.794Z,15.30
2022-09-24T06:21:04.934Z,15.20
2022-09-24T06:24:03.643Z,15.50
2022-09-24T06:27:02.727Z,15.60
2022-09-24T06:29:54.654Z,15.60
2022-09-24T06:32:48.218Z,15.50
2022-09-24T06:35:32.681Z,15.60
2022-09-24T06:38:26.283Z,15.40
2022-09-24T06:41:12.633Z,15.20
2022-09-24T06:44:02.832Z,15.30
2022-09-24T06:46:47.681Z,15.20
2022-09-24T06:49:38.875Z,15.50
2022-09-24T06:52:28.715Z,15.40
2022-09-24T06:55:20.063Z,15.50
2022-09-24T06:58:21.079Z,15.50
2022-09-24T07:01:09.856Z,15.40
2022-09-24T07:04:03.637Z,15.30
2022-09-24T07:07:11.560Z,15.40
2022-09-24T07:10:02.722Z,15.40
2022-09-24T07:12:53.802Z,15.60
2022-09-24T07:15:39.720Z,15.90
2022-09-24T07:18:29.848Z,15.90
2022-09-24T07:21:13.692Z,15.70
2022-09-24T07:24:03.825Z,15.70
2022-09-24T07:27:01.643Z,15.90
2022-09-24T07:29:56.094Z,15.80
2022-09-24T07:32:46.639Z,15.80
2022-09-24T07:35:36.893Z,15.80
2022-09-24T07:38:28.664Z,15.60
2022-09-24T07:41:17.700Z,15.40
2022-09-24T07:44:06.137Z,15.30
2022-09-24T07:46:57.790Z,15.50
2022-09-24T07:49:45.065Z,15.50
2022-09-24T07:52:41.663Z,15.80
2022-09-24T07:55:33.966Z,15.90
2022-09-24T07:58:29.722Z,15.80
2022-09-24T08:01:18.934Z,15.80
2022-09-24T08:04:11.827Z,15.80
2022-09-24T08:07:02.892Z,15.80
2022-09-24T08:10:01.688Z,15.90
2022-09-24T08:12:51.871Z,16.20
2022-09-24T08:15:34.814Z,16.40
2022-09-24T08:18:25.866Z,16.30
2022-09-24T08:21:13.710Z,16.20
2022-09-24T08:24:04.784Z,16.20
2022-09-24T08:27:05.663Z,16.20
2022-09-24T08:29:48.861Z,16.20
2022-09-24T08:32:49.065Z,16.10
2022-09-24T08:35:40.623Z,16.00
2022-09-24T08:38:33.683Z,16.00
2022-09-24T08:41:28.844Z,15.80
2022-09-24T08:44:45.017Z,15.90
2022-09-24T08:47:50.793Z,16.10
2022-09-24T08:50:35.441Z,16.00
2022-09-24T08:53:30.691Z,16.10
2022-09-24T08:56:24.933Z,15.80
2022-09-24T08:59:18.746Z,15.90
2022-09-24T09:02:22.972Z,16.10
2022-09-24T09:05:12.673Z,16.20
2022-09-24T09:08:27.379Z,16.00
2022-09-24T09:11:22.827Z,16.00
2022-09-24T09:14:16.732Z,16.20
2022-09-24T09:17:09.351Z,16.20
2022-09-24T09:19:54.937Z,16.20
2022-09-24T09:22:46.929Z,16.20
2022-09-24T09:25:37.722Z,16.40
2022-09-24T09:28:34.701Z,16.50
2022-09-24T09:31:33.734Z,16.70
2022-09-24T09:34:28.668Z,16.50
2022-09-24T09:37:29.695Z,16.40
2022-09-24T09:40:32.427Z,16.60
2022-09-24T09:43:24.711Z,16.80
2022-09-24T09:46:18.230Z,16.80
2022-09-24T09:49:21.777Z,16.80
2022-09-24T09:52:16.224Z,16.60
2022-09-24T09:55:01.803Z,16.80
2022-09-24T09:57:51.973Z,16.60
2022-09-24T10:00:40.708Z,16.60
2022-09-24T10:03:36.174Z,16.70
2022-09-24T10:06:20.703Z,16.80
2022-09-24T10:09:16.948Z,16.80
2022-09-24T10:12:00.723Z,16.80
2022-09-24T10:14:50.887Z,16.70
2022-09-24T10:17:43.808Z,16.60
2022-09-24T10:20:34.984Z,16.50
2022-09-24T10:23:38.740Z,16.30
2022-09-24T10:26:48.807Z,16.20
2022-09-24T10:30:05.739Z,16.30
2022-09-24T10:33:04.936Z,16.00
2022-09-24T10:35:48.808Z,16.00
2022-09-24T10:38:41.948Z,16.20
2022-09-24T10:41:33.773Z,16.30
2022-09-24T10:44:18.898Z,16.50
2022-09-24T10:47:27.725Z,16.40
2022-09-24T10:50:27.946Z,16.40
2022-09-24T10:53:24.737Z,16.40
2022-09-24T10:56:19.977Z,16.20
2022-09-24T10:59:25.721Z,16.10
2022-09-24T11:02:29.895Z,16.30
2022-09-24T11:05:19.723Z,16.30
2022-09-24T11:08:17.490Z,16.40
2022-09-24T11:11:09.828Z,16.60
2022-09-24T11:14:05.930Z,16.50
2022-09-24T11:17:04.748Z,16.60
2022-09-24T11:20:11.780Z,16.60
2022-09-24T11:23:09.337Z,16.80
2022-09-24T11:26:02.870Z,16.80
2022-09-24T11:29:12.811Z,16.80
2022-09-24T11:32:23.083Z,17.10
2022-09-24T11:35:25.906Z,17.10
2022-09-24T11:38:22.769Z,17.00
2022-09-24T11:41:20.751Z,16.60
2022-09-24T11:44:25.673Z,16.60
2022-09-24T11:47:25.830Z,16.80
2022-09-24T11:50:26.842Z,16.70
2022-09-24T11:53:11.969Z,16.80
2022-09-24T11:56:03.778Z,16.70
2022-09-24T11:58:49.963Z,16.60
2022-09-24T12:01:40.821Z,16.70
2022-09-24T12:04:33.406Z,16.70
2022-09-24T12:07:31.758Z,17.00
2022-09-24T12:10:34.660Z,17.20
2022-09-24T12:13:27.749Z,16.80
2022-09-24T12:16:22.594Z,16.60
2022-09-24T12:19:27.762Z,16.60
2022-09-24T12:22:24.247Z,16.50
2022-09-24T12:25:10.776Z,16.60
2022-09-24T12:28:09.219Z,16.90
2022-09-24T12:31:17.782Z,16.80
2022-09-24T12:34:16.901Z,16.70
2022-09-24T12:37:10.067Z,16.60
2022-09-24T12:40:02.788Z,16.70
2022-09-24T12:42:54.886Z,16.50
2022-09-24T12:45:38.837Z,16.30
2022-09-24T12:48:37.384Z,16.40
2022-09-24T12:51:20.753Z,16.60
2022-09-24T12:54:17.026Z,16.70
2022-09-24T12:57:25.247Z,16.80
2022-09-24T13:00:31.029Z,16.90
2022-09-24T13:03:22.859Z,16.80
2022-09-24T13:06:12.883Z,16.90
2022-09-24T13:09:04.826Z,16.90
2022-09-24T13:11:54.799Z,16.90
2022-09-24T13:14:43.171Z,17.00
2022-09-24T13:17:38.820Z,17.00
2022-09-24T13:20:31.920Z,17.00
2022-09-24T13:23:30.823Z,16.80
2022-09-24T13:26:22.001Z,16.70
2022-09-24T13:29:20.786Z,16.50
2022-09-24T13:32:13.947Z,16.40
2022-09-24T13:35:00.980Z,16.50
2022-09-24T13:37:51.074Z,16.30
2022-09-24T13:40:37.878Z,16.40
2022-09-24T13:43:43.034Z,16.30
2022-09-24T13:46:28.917Z,16.20
2022-09-24T13:49:31.777Z,16.50
2022-09-24T13:52:24.876Z,16.50
2022-09-24T13:55:13.853Z,16.50
2022-09-24T13:58:02.963Z,16.30
2022-09-24T14:00:51.820Z,16.40
2022-09-24T14:03:43.003Z,16.50
2022-09-24T14:06:29.928Z,16.60
2022-09-24T14:09:28.396Z,16.70
2022-09-24T14:12:29.847Z,16.90
2022-09-24T14:15:26.198Z,16.90
2022-09-24T14:18:15.811Z,17.20
2022-09-24T14:21:08.241Z,17.30
2022-09-24T14:24:08.979Z,17.20
2022-09-24T14:27:01.092Z,17.10
2022-09-24T14:29:55.851Z,17.00
2022-09-24T14:32:47.945Z,17.00
2022-09-24T14:35:37.927Z,17.00
2022-09-24T14:38:35.919Z,17.10
2022-09-24T14:41:32.123Z,17.10
2022-09-24T14:44:27.852Z,17.00
2022-09-24T14:47:33.437Z,17.00
2022-09-24T14:50:30.861Z,17.10
2022-09-24T14:53:26.892Z,16.80
2022-09-24T14:56:26.807Z,16.80
2022-09-24T14:59:26.201Z,16.90
2022-09-24T15:02:27.801Z,17.00
2022-09-24T15:05:23.072Z,16.90
2022-09-24T15:08:36.796Z,16.80
2022-09-24T15:11:28.019Z,16.80
2022-09-24T15:14:32.818Z,16.90
2022-09-24T15:17:31.084Z,17.10
2022-09-24T15:20:20.896Z,17.00
2022-09-24T15:23:06.007Z,16.80
2022-09-24T15:25:56.860Z,17.00
2022-09-24T15:28:55.865Z,16.60
2022-09-24T15:31:46.856Z,16.70
2022-09-24T15:34:33.974Z,16.70
2022-09-24T15:37:33.869Z,16.80
2022-09-24T15:40:31.143Z,17.00
2022-09-24T15:43:30.841Z,16.70
2022-09-24T15:46:19.060Z,16.60
2022-09-24T15:49:09.875Z,16.50
2022-09-24T15:52:04.088Z,16.60
2022-09-24T15:54:54.878Z,16.50
2022-09-24T15:57:48.836Z,16.50
2022-09-24T16:00:34.850Z,16.40
2022-09-24T16:03:26.077Z,16.50
2022-09-24T16:06:12.891Z,16.30
2022-09-24T16:09:03.808Z,16.40
2022-09-24T16:11:49.869Z,16.50
2022-09-24T16:14:40.010Z,16.50
2022-09-24T16:17:31.883Z,16.50
2022-09-24T16:20:14.444Z,16.50
2022-09-24T16:23:06.872Z,16.30
2022-09-24T16:26:06.083Z,16.30
2022-09-24T16:29:01.145Z,16.20
2022-09-24T16:31:52.112Z,16.30
2022-09-24T16:34:41.887Z,16.10
2022-09-24T16:37:39.943Z,16.00
2022-09-24T16:40:31.373Z,16.00
2022-09-24T16:43:23.883Z,15.90
2022-09-24T16:46:19.633Z,16.10
2022-09-24T16:49:11.923Z,16.10
2022-09-24T16:52:05.861Z,16.00
2022-09-24T16:54:57.795Z,15.90
2022-09-24T16:57:51.953Z,15.70
2022-09-24T17:00:42.374Z,15.70
2022-09-24T17:03:32.865Z,15.70
2022-09-24T17:06:19.478Z,15.70
2022-09-24T17:09:27.872Z,15.70
2022-09-24T17:12:17.166Z,15.70
2022-09-24T17:15:00.950Z,15.70
2022-09-24T17:17:53.137Z,15.70
2022-09-24T17:20:40.897Z,15.80
2022-09-24T17:23:32.101Z,15.80
2022-09-24T17:26:14.945Z,15.60
2022-09-24T17:29:12.942Z,15.40
2022-09-24T17:32:02.862Z,15.40
2022-09-24T17:34:48.165Z,15.00
2022-09-24T17:37:45.950Z,15.10
2022-09-24T17:40:36.215Z,15.10
2022-09-24T17:43:29.874Z,15.10
2022-09-24T17:46:23.799Z,15.00
2022-09-24T17:49:23.872Z,15.20
2022-09-24T17:52:16.641Z,15.10
2022-09-24T17:54:59.948Z,15.20
2022-09-24T17:57:51.095Z,15.10
2022-09-24T18:00:33.903Z,15.00
2022-09-24T18:03:23.104Z,15.10
2022-09-24T18:06:10.309Z,15.10
2022-09-24T18:09:10.991Z,15.10
2022-09-24T18:12:01.368Z,14.90
2022-09-24T18:14:54.052Z,14.80
2022-09-24T18:17:44.296Z,14.90
2022-09-24T18:20:27.139Z,15.00
2022-09-24T18:23:22.039Z,15.10
2022-09-24T18:26:17.052Z,15.10
2022-09-24T18:29:17.949Z,15.00
2022-09-24T18:32:15.899Z,15.10
2022-09-24T18:35:08.135Z,15.20
2022-09-24T18:37:59.081Z,15.20
2022-09-24T18:40:50.035Z,15.00
2022-09-24T18:43:41.156Z,15.00
2022-09-24T18:46:25.013Z,15.10
2022-09-24T18:49:19.756Z,15.20
2022-09-24T18:52:05.099Z,15.20
2022-09-24T18:54:57.157Z,15.30
2022-09-24T18:57:52.191Z,15.30
2022-09-24T19:00:53.880Z,15.20
2022-09-24T19:03:46.902Z,15.30
2022-09-24T19:06:37.222Z,15.20
2022-09-24T19:09:28.892Z,15.20
2022-09-24T19:12:29.044Z,15.20
2022-09-24T19:15:19.063Z,15.00
2022-09-24T19:18:15.911Z,15.00
2022-09-24T19:21:10.487Z,14.80
2022-09-24T19:24:02.963Z,14.70
2022-09-24T19:26:53.502Z,14.70
2022-09-24T19:29:41.964Z,14.60
2022-09-24T19:32:34.299Z,14.80
2022-09-24T19:35:19.010Z,14.80
2022-09-24T19:38:07.141Z,14.80
2022-09-24T19:41:03.964Z,14.70
2022-09-24T19:43:54.126Z,14.40
2022-09-24T19:46:45.989Z,14.30
2022-09-24T19:49:31.096Z,14.20
2022-09-24T19:52:36.061Z,14.10
2022-09-24T19:55:28.656Z,14.10
2022-09-24T19:58:11.255Z,14.10
2022-09-24T20:01:03.009Z,14.10
2022-09-24T20:03:47.134Z,14.30
2022-09-24T20:06:37.934Z,14.40
2022-09-24T20:09:28.218Z,14.50
2022-09-24T20:12:25.950Z,14.50
2022-09-24T20:15:18.077Z,14.50
2022-09-24T20:18:09.087Z,14.40
2022-09-24T20:21:00.220Z,14.50
2022-09-24T20:23:57.020Z,14.70
2022-09-24T20:27:08.237Z,14.70
2022-09-24T20:29:59.971Z,14.60
2022-09-24T20:32:51.164Z,14.60
2022-09-24T20:35:35.989Z,14.40
2022-09-24T20:38:26.424Z,14.50
2022-09-24T20:41:09.997Z,14.60
2022-09-24T20:44:04.168Z,14.70
2022-09-24T20:46:50.932Z,14.80
2022-09-24T20:49:42.121Z,14.70
2022-09-24T20:52:31.929Z,14.70
2022-09-24T20:55:21.264Z,14.60
2022-09-24T20:58:14.980Z,14.70
2022-09-24T21:01:06.158Z,14.70
2022-09-24T21:04:05.963Z,14.60
2022-09-24T21:06:56.956Z,14.60
2022-09-24T21:09:52.287Z,14.50
2022-09-24T21:12:43.032Z,14.70
2022-09-24T21:15:28.034Z,14.70
2022-09-24T21:18:31.015Z,14.60
2022-09-24T21:21:22.961Z,14.70
2022-09-24T21:24:14.382Z,14.60
2022-09-24T21:26:56.960Z,14.80
2022-09-24T21:29:53.943Z,14.80
2022-09-24T21:32:52.963Z,14.70
2022-09-24T21:35:43.208Z,14.80
2022-09-24T21:38:36.956Z,14.70
2022-09-24T21:41:28.217Z,14.70
2022-09-24T21:44:22.418Z,14.50
2022-09-24T21:47:15.548Z,14.60
2022-09-24T21:49:58.962Z,14.70
2022-09-24T21:52:52.654Z,14.60
2022-09-24T21:55:37.953Z,14.80
2022-09-24T21:58:29.232Z,14.90
2022-09-24T22:01:15.986Z,14.90
2022-09-24T22:04:07.177Z,14.80
2022-09-24T22:06:51.991Z,15.00
2022-09-24T22:09:44.160Z,15.00
2022-09-24T22:12:39.054Z,15.00
2022-09-24T22:15:29.202Z,15.00
2022-09-24T22:18:19.963Z,14.90
2022-09-24T22:21:16.791Z,15.00
2022-09-24T22:24:07.005Z,15.00
2022-09-24T22:26:59.198Z,15.10
2022-09-24T22:29:52.013Z,15.20
2022-09-24T22:32:43.168Z,15.10
2022-09-24T22:35:45.000Z,15.00
2022-09-24T22:38:35.099Z,15.00
2022-09-24T22:41:18.978Z,15.10
2022-09-24T22:44:10.487Z,15.10
2022-09-24T22:46:56.062Z,14.90
2022-09-24T22:49:49.437Z,14.80
2022-09-24T22:52:42.064Z,14.80
2022-09-24T22:55:33.127Z,14.60
2022-09-24T22:58:25.034Z,14.60
2022-09-24T23:01:17.220Z,14.60
2022-09-24T23:04:16.976Z,14.80
2022-09-24T23:06:59.403Z,14.70
2022-09-24T23:09:50.057Z,14.70
2022-09-24T23:12:42.502Z,14.60
2022-09-24T23:15:25.988Z,14.70
2022-09-24T23:18:20.900Z,14.60
2022-09-24T23:21:05.988Z,14.70
2022-09-24T23:23:59.290Z,14.60
2022-09-24T23:26:46.093Z,14.50
2022-09-24T23:29:45.148Z,14.50
2022-09-24T23:32:45.107Z,14.50
2022-09-24T23:35:35.199Z,14.60
2022-09-24T23:38:25.016Z,14.80
2022-09-24T23:41:16.246Z,14.70
2022-09-24T23:44:07.030Z,14.70
2022-09-24T23:47:00.541Z,14.80
2022-09-24T23:49:49.993Z,14.60
2022-09-24T23:52:40.495Z,14.50
2022-09-24T23:55:27.013Z,14.50
2022-09-24T23:58:17.236Z,14.70
